createdAt,value
2022-10-06T00:01:39.318Z,14
2022-10-06T00:04:11.335Z,14.1
2022-10-06T00:06:43.387Z,14
2022-10-06T00:09:14.815Z,14
2022-10-06T00:11:45.809Z,14
2022-10-06T00:14:17.945Z,13.9
2022-10-06T00:16:54.677Z,13.9
2022-10-06T00:19:27.093Z,14
2022-10-06T00:21:58.303Z,14
2022-10-06T00:24:31.027Z,14
2022-10-06T00:27:01.503Z,13.9
2022-10-06T00:29:34.120Z,13.9
2022-10-06T00:32:08.697Z,14
2022-10-06T00:34:40.979Z,14
2022-10-06T00:37:13.492Z,14
2022-10-06T00:39:44.582Z,14
2022-10-06T00:42:17.586Z,13.9
2022-10-06T00:44:49.216Z,13.9
2022-10-06T00:47:23.274Z,13.9
2022-10-06T00:49:54.627Z,13.9
2022-10-06T00:52:26.097Z,13.9
2022-10-06T00:54:57.143Z,13.9
2022-10-06T00:57:28.541Z,13.9
2022-10-06T00:59:59.796Z,13.9
2022-10-06T01:02:32.372Z,13.9
2022-10-06T01:05:03.437Z,13.9
2022-10-06T01:07:34.893Z,13.9
2022-10-06T01:10:06.348Z,13.9
2022-10-06T01:12:37.690Z,13.8
2022-10-06T01:15:10.337Z,13.9
2022-10-06T01:17:43.116Z,13.8
2022-10-06T01:20:14.265Z,13.8
2022-10-06T01:22:47.705Z,13.8
2022-10-06T01:25:20.887Z,13.9
2022-10-06T01:27:54.240Z,13.9
2022-10-06T01:30:26.657Z,13.9
2022-10-06T01:32:58.326Z,13.8
2022-10-06T01:35:30.819Z,13.8
2022-10-06T01:38:02.113Z,13.7
2022-10-06T01:40:34.737Z,13.7
2022-10-06T01:43:06.386Z,13.7
2022-10-06T01:45:37.348Z,13.7
2022-10-06T01:48:08.960Z,13.6
2022-10-06T01:50:40.189Z,13.7
2022-10-06T01:53:11.957Z,13.6
2022-10-06T01:55:43.126Z,13.6
2022-10-06T01:58:14.385Z,13.7
2022-10-06T02:00:45.711Z,13.7
2022-10-06T02:03:17.165Z,13.7
2022-10-06T02:05:48.413Z,13.6
2022-10-06T02:08:19.653Z,13.7
2022-10-06T02:10:51.891Z,13.7
2022-10-06T02:13:21.866Z,13.7
2022-10-06T02:15:53.912Z,13.7
2022-10-06T02:18:26.322Z,13.7
2022-10-06T02:20:57.349Z,13.7
2022-10-06T02:23:29.627Z,13.7
2022-10-06T02:26:01.090Z,13.5
2022-10-06T02:28:32.754Z,13.4
2022-10-06T02:31:03.319Z,13.4
2022-10-06T02:33:35.350Z,13.4
2022-10-06T02:36:08.273Z,13.4
2022-10-06T02:38:39.689Z,13.4
2022-10-06T02:41:11.008Z,13.4
2022-10-06T02:43:42.252Z,13.4
2022-10-06T02:46:15.368Z,13.5
2022-10-06T02:48:46.253Z,13.4
2022-10-06T02:51:17.203Z,13.4
2022-10-06T02:53:48.175Z,13.3
2022-10-06T02:56:20.989Z,13.3
2022-10-06T02:58:53.589Z,13.3
2022-10-06T03:01:24.578Z,13.3
2022-10-06T03:03:56.243Z,13.3
2022-10-06T03:06:28.188Z,13.3
2022-10-06T03:08:57.605Z,13.2
2022-10-06T03:11:28.465Z,13.1
2022-10-06T03:13:59.201Z,13
2022-10-06T03:16:31.065Z,13.1
2022-10-06T03:19:02.500Z,13
2022-10-06T03:21:34.456Z,13
2022-10-06T03:24:06.171Z,13
2022-10-06T03:26:38.266Z,13
2022-10-06T03:29:11.684Z,12.9
2022-10-06T03:31:41.671Z,12.9
2022-10-06T03:34:13.521Z,12.8
2022-10-06T03:36:44.129Z,12.8
2022-10-06T03:39:15.771Z,12.7
2022-10-06T03:41:50.527Z,12.7
2022-10-06T03:44:22.052Z,12.6
2022-10-06T03:46:53.277Z,12.6
2022-10-06T03:49:28.701Z,12.6
2022-10-06T03:52:01.151Z,12.6
2022-10-06T03:54:31.959Z,12.6
2022-10-06T03:57:06.082Z,12.7
2022-10-06T03:59:42.153Z,12.6
2022-10-06T04:02:13.512Z,12.6
2022-10-06T04:04:45.757Z,12.4
2022-10-06T04:07:17.346Z,12.4
2022-10-06T04:09:48.257Z,12.4
2022-10-06T04:12:19.293Z,12.5
2022-10-06T04:14:50.840Z,12.3
2022-10-06T04:17:22.003Z,12.3
2022-10-06T04:19:52.973Z,12.3
2022-10-06T04:22:24.605Z,12.3
2022-10-06T04:24:55.824Z,12.3
2022-10-06T04:27:28.067Z,12.2
2022-10-06T04:29:58.651Z,12.1
2022-10-06T04:32:29.870Z,12.1
2022-10-06T04:35:00.640Z,12.1
2022-10-06T04:37:31.451Z,12.1
2022-10-06T04:40:05.246Z,12
2022-10-06T04:42:38.027Z,12.1
2022-10-06T04:45:11.652Z,12
2022-10-06T04:47:43.962Z,11.9
2022-10-06T04:50:15.359Z,12
2022-10-06T04:52:46.249Z,11.9
2022-10-06T04:55:18.250Z,12
2022-10-06T04:57:49.597Z,12.1
2022-10-06T05:00:21.773Z,12.1
2022-10-06T05:02:52.708Z,12.1
2022-10-06T05:05:23.493Z,11.9
2022-10-06T05:07:54.241Z,12.1
2022-10-06T05:10:24.898Z,12
2022-10-06T05:12:57.482Z,12
2022-10-06T05:15:29.426Z,12.1
2022-10-06T05:18:00.717Z,12.1
2022-10-06T05:20:32.494Z,12.2
2022-10-06T05:23:04.342Z,12.1
2022-10-06T05:25:36.061Z,12.1
2022-10-06T05:28:07.217Z,12.2
2022-10-06T05:30:39.625Z,12.3
2022-10-06T05:33:11.059Z,12.3
2022-10-06T05:35:44.027Z,12.2
2022-10-06T05:38:14.782Z,12.5
2022-10-06T05:40:46.346Z,12.5
2022-10-06T05:43:17.650Z,12.5
2022-10-06T05:45:49.600Z,12.5
2022-10-06T05:48:19.953Z,12.6
2022-10-06T05:50:51.274Z,12.7
2022-10-06T05:53:22.913Z,12.7
2022-10-06T05:55:54.220Z,12.8
2022-10-06T05:58:25.457Z,12.8
2022-10-06T06:00:58.197Z,12.9
2022-10-06T06:03:29.255Z,13
2022-10-06T06:06:03.379Z,13.1
2022-10-06T06:08:34.958Z,13.2
2022-10-06T06:11:05.968Z,13.4
2022-10-06T06:13:37.381Z,13.5
2022-10-06T06:16:08.632Z,13.5
2022-10-06T06:18:40.318Z,13.6
2022-10-06T06:21:12.065Z,13.6
2022-10-06T06:23:43.562Z,13.8
2022-10-06T06:26:14.192Z,13.9
2022-10-06T06:28:44.854Z,13.9
2022-10-06T06:31:19.824Z,14
2022-10-06T06:33:48.610Z,14.1
2022-10-06T06:36:20.204Z,14.1
2022-10-06T06:38:52.060Z,14.3
2022-10-06T06:41:25.375Z,14.3
2022-10-06T06:43:59.971Z,14.5
2022-10-06T06:46:32.478Z,14.7
2022-10-06T06:49:04.471Z,14.7
2022-10-06T06:51:35.902Z,14.7
2022-10-06T06:54:07.066Z,14.8
2022-10-06T06:56:37.370Z,15.1
2022-10-06T06:59:09.268Z,15.3
2022-10-06T07:01:41.712Z,15.3
2022-10-06T07:04:12.641Z,15.4
2022-10-06T07:06:45.040Z,15.3
2022-10-06T07:09:16.556Z,15.5
2022-10-06T07:11:48.618Z,15.5
2022-10-06T07:14:17.782Z,15.4
2022-10-06T07:16:48.378Z,15.5
2022-10-06T07:19:23.887Z,15.6
2022-10-06T07:21:50.365Z,15.6
2022-10-06T07:24:22.404Z,15.7
2022-10-06T07:26:53.533Z,15.8
2022-10-06T07:29:24.368Z,15.9
2022-10-06T07:31:56.258Z,16
2022-10-06T07:34:26.889Z,16.1
2022-10-06T07:36:57.485Z,16.2
2022-10-06T07:39:28.636Z,16.3
2022-10-06T07:41:59.108Z,16.4
2022-10-06T07:44:31.068Z,16.4
2022-10-06T07:47:02.505Z,16.5
2022-10-06T07:49:33.435Z,16.6
2022-10-06T07:52:04.822Z,16.7
2022-10-06T07:54:37.914Z,16.9
2022-10-06T07:57:09.159Z,17
2022-10-06T07:59:39.898Z,17.1
2022-10-06T08:02:12.270Z,17.3
2022-10-06T08:04:43.838Z,17.4
2022-10-06T08:07:15.300Z,17.5
2022-10-06T08:09:47.677Z,17.5
2022-10-06T08:12:22.610Z,17.6
2022-10-06T08:14:54.228Z,17.7
2022-10-06T08:17:24.671Z,17.8
2022-10-06T08:19:55.990Z,17.8
2022-10-06T08:22:28.674Z,18
2022-10-06T08:25:06.009Z,18
2022-10-06T08:27:33.340Z,18.1
2022-10-06T08:30:05.225Z,18.3
2022-10-06T08:32:36.065Z,18.4
2022-10-06T08:35:08.371Z,18.4
2022-10-06T08:37:42.354Z,18.5
2022-10-06T08:40:15.660Z,18.7
2022-10-06T08:42:47.911Z,18.6
2022-10-06T08:45:17.204Z,18.8
2022-10-06T08:47:48.293Z,18.9
2022-10-06T08:50:18.766Z,19
2022-10-06T08:52:50.243Z,19.2
2022-10-06T08:55:21.594Z,19.1
2022-10-06T08:57:53.069Z,19.2
2022-10-06T09:00:24.460Z,19.3
2022-10-06T09:02:57.429Z,19.2
2022-10-06T09:05:31.044Z,19.2
2022-10-06T09:08:01.778Z,19.3
2022-10-06T09:10:33.563Z,19.4
2022-10-06T09:13:05.683Z,19.4
2022-10-06T09:15:36.660Z,19.4
2022-10-06T09:18:08.730Z,19.5
2022-10-06T09:20:42.285Z,19.6
2022-10-06T09:23:15.253Z,19.6
2022-10-06T09:25:48.518Z,19.7
2022-10-06T09:28:19.647Z,19.7
2022-10-06T09:30:54.590Z,19.9
2022-10-06T09:33:20.678Z,19.9
2022-10-06T09:35:52.525Z,20
2022-10-06T09:38:24.872Z,20
2022-10-06T09:40:55.658Z,20.1
2022-10-06T09:43:28.405Z,20.2
2022-10-06T09:46:00.166Z,20.2
2022-10-06T09:48:30.929Z,20.3
2022-10-06T09:51:02.031Z,20.4
2022-10-06T09:53:37.460Z,20.3
2022-10-06T09:56:05.280Z,20.3
2022-10-06T09:58:34.864Z,20.4
2022-10-06T10:01:05.972Z,20.5
2022-10-06T10:03:37.097Z,20.6
2022-10-06T10:06:07.256Z,20.6
2022-10-06T10:08:39.067Z,20.6
2022-10-06T10:11:11.350Z,20.5
2022-10-06T10:13:44.169Z,20.5
2022-10-06T10:16:13.731Z,20.6
2022-10-06T10:18:45.044Z,20.6
2022-10-06T10:21:15.662Z,20.7
2022-10-06T10:23:46.057Z,20.7
2022-10-06T10:26:16.563Z,20.9
2022-10-06T10:28:47.861Z,21
2022-10-06T10:31:20.318Z,21
2022-10-06T10:34:04.765Z,21.2
2022-10-06T10:36:25.782Z,21.2
2022-10-06T10:38:55.044Z,21.2
2022-10-06T10:41:24.701Z,21.3
2022-10-06T10:43:57.144Z,21.4
2022-10-06T10:46:27.384Z,21.4
2022-10-06T10:48:59.305Z,21.5
2022-10-06T10:51:29.847Z,21.5
2022-10-06T10:54:00.694Z,21.5
2022-10-06T10:56:31.370Z,21.5
2022-10-06T10:59:02.249Z,21.5
2022-10-06T11:01:35.310Z,21.6
2022-10-06T11:04:08.902Z,21.5
2022-10-06T11:06:40.332Z,21.6
2022-10-06T11:09:12.206Z,21.6
2022-10-06T11:11:43.497Z,21.7
2022-10-06T11:14:15.162Z,21.6
2022-10-06T11:16:49.965Z,21.6
2022-10-06T11:19:20.773Z,21.7
2022-10-06T11:21:54.824Z,21.8
2022-10-06T11:24:26.056Z,21.9
2022-10-06T11:26:56.408Z,21.9
2022-10-06T11:29:27.084Z,21.9
2022-10-06T11:32:00.685Z,21.9
2022-10-06T11:34:31.937Z,21.9
2022-10-06T11:37:01.125Z,21.9
2022-10-06T11:42:05.722Z,22
2022-10-06T11:44:37.637Z,22
2022-10-06T11:47:08.466Z,22.1
2022-10-06T11:49:39.713Z,22.1
2022-10-06T11:52:13.713Z,22.1
2022-10-06T11:54:44.089Z,22.2
2022-10-06T11:57:16.412Z,22.3
2022-10-06T11:59:48.237Z,22.2
2022-10-06T12:02:24.015Z,22.2
2022-10-06T12:04:54.478Z,22.3
2022-10-06T12:07:26.350Z,22.3
2022-10-06T12:12:29.258Z,22.3
2022-10-06T12:17:30.784Z,22.3
2022-10-06T12:20:01.637Z,22.4
2022-10-06T12:22:32.870Z,22.4
2022-10-06T12:25:03.514Z,22.5
2022-10-06T12:27:37.067Z,22.5
2022-10-06T12:30:09.200Z,22.5
2022-10-06T12:32:40.613Z,22.6
2022-10-06T12:35:11.293Z,22.6
2022-10-06T12:37:40.906Z,22.6
2022-10-06T12:40:11.957Z,22.7
2022-10-06T12:42:43.602Z,22.7
2022-10-06T12:45:14.056Z,22.7
2022-10-06T12:47:47.892Z,22.6
2022-10-06T12:50:19.742Z,22.7
2022-10-06T12:52:51.612Z,22.8
2022-10-06T12:55:24.337Z,22.8
2022-10-06T12:57:58.793Z,22.9
2022-10-06T13:00:29.847Z,23
2022-10-06T13:03:01.491Z,23.1
2022-10-06T13:05:33.719Z,23.1
2022-10-06T13:08:08.625Z,23.2
2022-10-06T13:10:38.591Z,23.1
2022-10-06T13:13:13.066Z,23
2022-10-06T13:15:46.136Z,23
2022-10-06T13:18:16.784Z,22.9
2022-10-06T13:20:47.321Z,23
2022-10-06T13:23:22.743Z,22.9
2022-10-06T13:25:54.099Z,22.8
2022-10-06T13:28:24.260Z,22.7
2022-10-06T13:30:55.756Z,22.6
2022-10-06T13:36:06.887Z,22.5
2022-10-06T13:38:44.054Z,22.5
2022-10-06T13:41:17.590Z,22.6
2022-10-06T13:43:49.482Z,22.5
2022-10-06T13:46:28.445Z,22.3
2022-10-06T13:49:00.400Z,22.2
2022-10-06T13:51:36.014Z,22.2
2022-10-06T13:54:08.218Z,22.1
2022-10-06T13:56:39.972Z,22
2022-10-06T13:59:12.162Z,21.9
2022-10-06T14:01:44.478Z,21.8
2022-10-06T14:04:16.068Z,21.7
2022-10-06T14:06:47.612Z,21.7
2022-10-06T14:09:23.770Z,21.6
2022-10-06T14:11:55.130Z,21.5
2022-10-06T14:14:24.907Z,21.4
2022-10-06T14:16:58.550Z,21.3
2022-10-06T14:19:29.995Z,21.3
2022-10-06T14:22:01.422Z,21.2
2022-10-06T14:24:31.776Z,21.1
2022-10-06T14:27:03.020Z,21
2022-10-06T14:32:10.560Z,21
2022-10-06T14:34:45.073Z,21
2022-10-06T14:37:16.030Z,20.9
2022-10-06T14:39:48.161Z,20.9
2022-10-06T14:42:19.443Z,20.8
2022-10-06T14:44:48.875Z,20.8
2022-10-06T14:47:19.849Z,20.8
2022-10-06T14:49:50.131Z,20.8
2022-10-06T14:52:21.818Z,20.8
2022-10-06T14:54:55.066Z,20.7
2022-10-06T14:57:27.286Z,20.6
2022-10-06T14:59:58.566Z,20.6
2022-10-06T15:02:30.974Z,20.6
2022-10-06T15:05:02.373Z,20.6
2022-10-06T15:07:32.908Z,20.5
2022-10-06T15:10:04.567Z,20.5
2022-10-06T15:12:36.226Z,20.5
2022-10-06T15:15:07.588Z,20.4
2022-10-06T15:17:39.100Z,20.4
2022-10-06T15:20:09.904Z,20.3
2022-10-06T15:22:40.977Z,20.3
2022-10-06T15:25:13.536Z,20.2
2022-10-06T15:27:45.399Z,20.2
2022-10-06T15:30:16.569Z,20.2
2022-10-06T15:32:48.007Z,20.1
2022-10-06T15:35:18.871Z,20.1
2022-10-06T15:37:52.863Z,20
2022-10-06T15:40:25.058Z,20
2022-10-06T15:42:56.500Z,20
2022-10-06T15:45:29.657Z,19.9
2022-10-06T15:47:59.951Z,19.9
2022-10-06T15:50:33.310Z,19.8
2022-10-06T15:53:08.075Z,19.8
2022-10-06T15:55:38.974Z,19.8
2022-10-06T15:58:08.156Z,19.7
2022-10-06T16:00:39.769Z,19.7
2022-10-06T16:03:12.895Z,19.7
2022-10-06T16:05:43.790Z,19.6
2022-10-06T16:08:17.161Z,19.5
2022-10-06T16:10:49.733Z,19.5
2022-10-06T16:13:21.165Z,19.4
2022-10-06T16:15:52.330Z,19.4
2022-10-06T16:18:23.260Z,19.4
2022-10-06T16:21:01.904Z,19.4
2022-10-06T16:23:35.643Z,19.3
2022-10-06T16:26:12.035Z,19.2
2022-10-06T16:28:46.250Z,19.3
2022-10-06T16:31:18.736Z,19.3
2022-10-06T16:33:50.093Z,19.2
2022-10-06T16:36:22.526Z,19.3
2022-10-06T16:38:55.600Z,19.2
2022-10-06T16:41:32.759Z,19.3
2022-10-06T16:44:04.581Z,19.3
2022-10-06T16:46:37.553Z,19.1
2022-10-06T16:49:09.888Z,19
2022-10-06T16:51:41.083Z,19
2022-10-06T16:54:12.282Z,18.9
2022-10-06T16:56:46.036Z,18.9
2022-10-06T16:59:19.916Z,18.9
2022-10-06T17:01:51.501Z,18.8
2022-10-06T17:04:23.372Z,18.8
2022-10-06T17:06:54.279Z,18.7
2022-10-06T17:09:30.704Z,18.6
2022-10-06T17:12:03.453Z,18.4
2022-10-06T17:14:36.635Z,18.4
2022-10-06T17:17:09.232Z,18.5
2022-10-06T17:19:40.628Z,18.5
2022-10-06T17:22:11.785Z,18.5
2022-10-06T17:24:44.902Z,18.4
2022-10-06T17:27:21.474Z,18.3
2022-10-06T17:29:55.751Z,18.3
2022-10-06T17:32:28.355Z,18.2
2022-10-06T17:34:59.470Z,18.1
2022-10-06T17:37:33.135Z,18.1
2022-10-06T17:40:06.431Z,18
2022-10-06T17:42:42.995Z,18
2022-10-06T17:45:17.681Z,17.8
2022-10-06T17:47:48.633Z,17.8
2022-10-06T17:50:19.982Z,17.8
2022-10-06T17:52:51.526Z,17.7
2022-10-06T17:55:24.621Z,17.7
2022-10-06T17:57:55.761Z,17.6
2022-10-06T18:00:28.960Z,17.6
2022-10-06T18:03:00.359Z,17.6
2022-10-06T18:05:33.377Z,17.6
2022-10-06T18:08:04.769Z,17.5
2022-10-06T18:10:36.378Z,17.4
2022-10-06T18:13:11.267Z,17.3
2022-10-06T18:15:44.639Z,17.3
2022-10-06T18:18:16.839Z,17.3
2022-10-06T18:20:47.973Z,17.3
2022-10-06T18:23:19.280Z,17.2
2022-10-06T18:25:52.960Z,17.2
2022-10-06T18:28:24.395Z,17.1
2022-10-06T18:30:56.635Z,17.2
2022-10-06T18:36:11.523Z,17
2022-10-06T18:38:45.596Z,17
2022-10-06T18:41:17.303Z,17.1
2022-10-06T18:43:51.348Z,16.9
2022-10-06T18:46:24.651Z,16.8
2022-10-06T18:48:59.540Z,16.8
2022-10-06T18:51:30.814Z,16.6
2022-10-06T18:54:03.523Z,16.5
2022-10-06T18:56:32.833Z,16.5
2022-10-06T18:59:04.159Z,16.6
2022-10-06T19:01:38.121Z,16.6
2022-10-06T19:04:15.584Z,16.6
2022-10-06T19:06:47.783Z,16.4
2022-10-06T19:09:19.037Z,16.4
2022-10-06T19:11:49.769Z,16.4
2022-10-06T19:14:21.922Z,16.6
2022-10-06T19:16:57.202Z,16.5
2022-10-06T19:19:29.888Z,16.3
2022-10-06T19:21:59.634Z,16.3
2022-10-06T19:24:30.918Z,16.4
2022-10-06T19:27:02.117Z,16.2
2022-10-06T19:29:34.256Z,16.2
2022-10-06T19:32:08.425Z,16.2
2022-10-06T19:34:40.862Z,16.2
2022-10-06T19:37:12.151Z,16.1
2022-10-06T19:39:48.485Z,16
2022-10-06T19:42:24.138Z,16
2022-10-06T19:44:56.265Z,16
2022-10-06T19:47:38.480Z,16
2022-10-06T19:50:12.387Z,16
2022-10-06T19:52:39.241Z,15.9
2022-10-06T19:55:11.798Z,15.9
2022-10-06T19:57:47.183Z,15.7
2022-10-06T20:00:26.120Z,15.8
2022-10-06T20:02:57.346Z,15.7
2022-10-06T20:05:30.863Z,15.8
2022-10-06T20:08:06.442Z,15.7
2022-10-06T20:10:37.193Z,15.6
2022-10-06T20:13:08.311Z,15.8
2022-10-06T20:15:45.876Z,15.6
2022-10-06T20:18:21.926Z,15.6
2022-10-06T20:20:54.784Z,15.5
2022-10-06T20:23:25.926Z,15.6
2022-10-06T20:25:56.761Z,15.5
2022-10-06T20:28:28.994Z,15.4
2022-10-06T20:31:00.129Z,15.4
2022-10-06T20:33:31.481Z,15.4
2022-10-06T20:36:03.336Z,15.3
2022-10-06T20:38:40.245Z,15.3
2022-10-06T20:41:10.368Z,15.2
2022-10-06T20:43:40.143Z,15.2
2022-10-06T20:46:09.999Z,15.1
2022-10-06T20:48:41.244Z,15.1
2022-10-06T20:51:11.215Z,15
2022-10-06T20:53:43.601Z,15
2022-10-06T20:56:14.291Z,15.1
2022-10-06T20:58:49.650Z,15.1
2022-10-06T21:01:27.661Z,14.9
2022-10-06T21:04:02.499Z,15
2022-10-06T21:06:35.424Z,15.1
2022-10-06T21:09:18.511Z,15.1
2022-10-06T21:11:53.773Z,15
2022-10-06T21:14:26.194Z,14.9
2022-10-06T21:16:56.928Z,14.9
2022-10-06T21:19:26.923Z,14.9
2022-10-06T21:22:00.062Z,15
2022-10-06T21:24:31.388Z,14.8
2022-10-06T21:27:03.125Z,14.8
2022-10-06T21:29:34.414Z,14.8
2022-10-06T21:32:04.149Z,14.7
2022-10-06T21:34:40.560Z,14.6
2022-10-06T21:37:14.831Z,14.6
2022-10-06T21:39:46.967Z,14.6
2022-10-06T21:42:19.439Z,14.6
2022-10-06T21:44:51.461Z,14.6
2022-10-06T21:47:23.296Z,14.5
2022-10-06T21:49:55.216Z,14.5
2022-10-06T21:52:25.000Z,14.4
2022-10-06T21:54:57.237Z,14.4
2022-10-06T21:57:28.778Z,14.3
2022-10-06T22:02:38.345Z,14.3
2022-10-06T22:05:09.792Z,14.3
2022-10-06T22:07:39.992Z,14.3
2022-10-06T22:10:11.314Z,14.3
2022-10-06T22:12:44.055Z,14.1
2022-10-06T22:15:15.700Z,14.1
2022-10-06T22:17:49.547Z,14.2
2022-10-06T22:20:22.024Z,14.2
2022-10-06T22:22:55.036Z,14.3
2022-10-06T22:25:33.146Z,14.2
2022-10-06T22:28:04.692Z,14.2
2022-10-06T22:30:33.407Z,14.2
2022-10-06T22:33:03.739Z,14.1
2022-10-06T22:35:34.215Z,14.1
2022-10-06T22:38:05.626Z,14.1
2022-10-06T22:40:37.268Z,14.1
2022-10-06T22:43:08.521Z,14
2022-10-06T22:45:38.978Z,13.9
2022-10-06T22:48:09.577Z,13.9
2022-10-06T22:50:40.288Z,13.8
2022-10-06T22:53:11.986Z,13.8
2022-10-06T22:55:43.094Z,13.9
2022-10-06T23:00:50.322Z,13.8
2022-10-06T23:03:21.890Z,13.7
2022-10-06T23:05:53.484Z,13.7
2022-10-06T23:08:25.300Z,13.6
2022-10-06T23:10:56.799Z,13.6
2022-10-06T23:13:31.096Z,13.8
2022-10-06T23:16:07.713Z,13.7
2022-10-06T23:18:37.639Z,13.8
2022-10-06T23:21:14.446Z,13.7
2022-10-06T23:23:45.121Z,13.6
2022-10-06T23:26:15.749Z,13.6
2022-10-06T23:28:46.509Z,13.6
2022-10-06T23:31:17.546Z,13.6
2022-10-06T23:33:47.821Z,13.6
2022-10-06T23:36:19.507Z,13.6
2022-10-06T23:38:50.414Z,13.6
2022-10-06T23:41:21.275Z,13.5
2022-10-06T23:43:51.651Z,13.5
2022-10-06T23:46:22.623Z,13.3
2022-10-06T23:48:53.364Z,13.3
2022-10-06T23:51:25.581Z,13.3
2022-10-06T23:53:57.920Z,13.3
2022-10-06T23:56:28.313Z,13.3
2022-10-06T23:58:57.409Z,13.3
